Search for airport 
image banner adimage banner adimage banner ad
image banner ad

MZPG - Punta Gorda Airstrip

Located in Punta Gorda, Belize

ICAO - , IATA - PND

Data provided by Airmate  

General information

Coordinates: N16°6'0" W88°48'0"
Elevation is feet MSL.
 
View others Airports in Toledo District

Operational data

Special qualification required
Current time UTC:
Current local time:
Weather at : MGPB - Puerto Barrios ( 47 km )
METAR: MGPB 191100Z 00000KT 9999 FEW016 SCT090 23/22 Q1012 A2988
TAF: MGPB 190500Z 1906/2006 00000KT 9999 SCT016 BKN080 TX29/1920Z TN21/1912Z TEMPO 1906/1916 BKN016 BECMG 1916/1918 05008KT SCT018 TEMPO 1920/2000 8000 RADZ BKN018 BECMG 2000/2002 00000KT SCT016
View NOTAMs / SUP AIP / TFR affecting this airport [VIEW]
Communications frequencies: [VIEW]

Runways:

RWY identifierQFULength (ft)Width (ft)SurfaceLDA (ft)
0600
2400

Airport contact information

Address: Punta Gorda Belize

Satellite view of MZPG